Mist, Oregon
Current Conditions -  °F | °C
As of 8:35 AM on Friday 24 Oct 2014 (Local Time) from KKLS Reporting Station
Clear Clear  
Wind Chill: 46°   Ceiling: Unl
Heat Index: 46°   Visibility: 7mi
Dew Point: 45°   Wind: 3mph
Humidity: 93%   Direction: 320°NW
Pressure: 30.04"   Gusts: NA
Location:  46.0479°N, 123.274°W
Report Text: KKLS 241535Z AUTO 32003KT 7SM CLR 08/07 A3004 RMK AO1
Loading
Personal Weather Stations






























Interactive Weather Map
Tropical Storm Tracking
New forecast layout! Learn more

10-Day Weather Forecast

Advertisements
Track Severe Weather on mobile